sensor_id;sensor_type;location;lat;lon;timestamp;temperature;humidity
1351;DHT22;669;50.206;9.998;2023-08-06T00:02:10;14.50;99.90
1351;DHT22;669;50.206;9.998;2023-08-06T00:04:38;14.40;99.90
1351;DHT22;669;50.206;9.998;2023-08-06T00:07:06;14.40;99.90
1351;DHT22;669;50.206;9.998;2023-08-06T00:09:35;14.50;99.90
1351;DHT22;669;50.206;9.998;2023-08-06T00:12:04;14.50;99.90
1351;DHT22;669;50.206;9.998;2023-08-06T00:14:32;14.60;99.90
1351;DHT22;669;50.206;9.998;2023-08-06T00:17:00;14.70;99.90
1351;DHT22;669;50.206;9.998;2023-08-06T00:19:28;14.80;99.90
1351;DHT22;669;50.206;9.998;2023-08-06T00:21:56;14.90;99.90
1351;DHT22;669;50.206;9.998;2023-08-06T00:24:24;14.80;99.90
1351;DHT22;669;50.206;9.998;2023-08-06T00:26:53;14.80;99.90
1351;DHT22;669;50.206;9.998;2023-08-06T00:29:21;14.80;99.90
1351;DHT22;669;50.206;9.998;2023-08-06T00:31:49;14.80;99.90
1351;DHT22;669;50.206;9.998;2023-08-06T00:34:18;14.70;99.90
1351;DHT22;669;50.206;9.998;2023-08-06T00:36:46;14.70;99.90
1351;DHT22;669;50.206;9.998;2023-08-06T00:39:14;14.70;99.90
1351;DHT22;669;50.206;9.998;2023-08-06T00:41:42;14.70;99.90
1351;DHT22;669;50.206;9.998;2023-08-06T00:44:11;14.70;99.90
1351;DHT22;669;50.206;9.998;2023-08-06T00:46:39;14.60;99.90
1351;DHT22;669;50.206;9.998;2023-08-06T00:49:07;14.60;99.90
1351;DHT22;669;50.206;9.998;2023-08-06T00:51:35;14.60;99.90
1351;DHT22;669;50.206;9.998;2023-08-06T00:54:03;14.60;99.90
1351;DHT22;669;50.206;9.998;2023-08-06T00:56:33;14.70;99.90
1351;DHT22;669;50.206;9.998;2023-08-06T00:59:02;14.70;99.90
1351;DHT22;669;50.206;9.998;2023-08-06T01:01:32;14.70;99.90
1351;DHT22;669;50.206;9.998;2023-08-06T01:04:01;14.70;99.90
1351;DHT22;669;50.206;9.998;2023-08-06T01:06:39;14.70;99.90
1351;DHT22;669;50.206;9.998;2023-08-06T01:09:27;14.70;99.90
1351;DHT22;669;50.206;9.998;2023-08-06T01:12:01;14.60;99.90
1351;DHT22;669;50.206;9.998;2023-08-06T01:14:37;14.60;99.90
1351;DHT22;669;50.206;9.998;2023-08-06T01:17:12;14.60;99.90
1351;DHT22;669;50.206;9.998;2023-08-06T01:19:40;14.70;99.90
1351;DHT22;669;50.206;9.998;2023-08-06T01:22:10;14.70;99.90
1351;DHT22;669;50.206;9.998;2023-08-06T01:24:38;14.80;99.90
1351;DHT22;669;50.206;9.998;2023-08-06T01:27:08;14.70;99.90
1351;DHT22;669;50.206;9.998;2023-08-06T01:29:43;14.70;99.90
1351;DHT22;669;50.206;9.998;2023-08-06T01:32:14;14.60;99.90
1351;DHT22;669;50.206;9.998;2023-08-06T01:34:45;14.60;99.90
1351;DHT22;669;50.206;9.998;2023-08-06T01:37:16;14.50;99.90
1351;DHT22;669;50.206;9.998;2023-08-06T01:39:44;14.60;99.90
1351;DHT22;669;50.206;9.998;2023-08-06T01:42:12;14.50;99.90
1351;DHT22;669;50.206;9.998;2023-08-06T01:44:40;14.50;99.90
1351;DHT22;669;50.206;9.998;2023-08-06T01:47:08;14.50;99.90
1351;DHT22;669;50.206;9.998;2023-08-06T01:49:36;14.50;99.90
1351;DHT22;669;50.206;9.998;2023-08-06T01:52:05;14.50;99.90
1351;DHT22;669;50.206;9.998;2023-08-06T01:54:34;14.50;99.90
1351;DHT22;669;50.206;9.998;2023-08-06T01:57:03;14.50;99.90
1351;DHT22;669;50.206;9.998;2023-08-06T01:59:31;14.50;99.90
1351;DHT22;669;50.206;9.998;2023-08-06T02:01:59;14.50;99.90
1351;DHT22;669;50.206;9.998;2023-08-06T02:04:27;14.50;99.90
1351;DHT22;669;50.206;9.998;2023-08-06T02:06:55;14.60;99.90
1351;DHT22;669;50.206;9.998;2023-08-06T02:09:23;14.70;99.90
1351;DHT22;669;50.206;9.998;2023-08-06T02:11:52;14.60;99.90
1351;DHT22;669;50.206;9.998;2023-08-06T02:14:20;14.60;99.90
1351;DHT22;669;50.206;9.998;2023-08-06T02:16:48;14.60;99.90
1351;DHT22;669;50.206;9.998;2023-08-06T02:19:17;14.60;99.90
1351;DHT22;669;50.206;9.998;2023-08-06T02:21:45;14.60;99.90
1351;DHT22;669;50.206;9.998;2023-08-06T02:24:12;14.50;99.90
1351;DHT22;669;50.206;9.998;2023-08-06T02:26:40;14.40;99.90
1351;DHT22;669;50.206;9.998;2023-08-06T02:29:10;14.40;99.90
1351;DHT22;669;50.206;9.998;2023-08-06T02:31:38;14.40;99.90
1351;DHT22;669;50.206;9.998;2023-08-06T02:34:06;14.30;99.90
1351;DHT22;669;50.206;9.998;2023-08-06T02:36:34;14.30;99.90
1351;DHT22;669;50.206;9.998;2023-08-06T02:39:03;14.30;99.90
1351;DHT22;669;50.206;9.998;2023-08-06T02:41:31;14.30;99.90
1351;DHT22;669;50.206;9.998;2023-08-06T02:43:58;14.30;99.90
1351;DHT22;669;50.206;9.998;2023-08-06T02:46:28;14.20;99.90
1351;DHT22;669;50.206;9.998;2023-08-06T02:48:56;14.10;99.90
1351;DHT22;669;50.206;9.998;2023-08-06T02:51:24;14.10;99.90
1351;DHT22;669;50.206;9.998;2023-08-06T02:53:52;14.10;99.90
1351;DHT22;669;50.206;9.998;2023-08-06T02:56:19;14.10;99.90
1351;DHT22;669;50.206;9.998;2023-08-06T02:58:48;14.00;99.90
1351;DHT22;669;50.206;9.998;2023-08-06T03:01:16;14.00;99.90
1351;DHT22;669;50.206;9.998;2023-08-06T03:03:45;14.10;99.90
1351;DHT22;669;50.206;9.998;2023-08-06T03:06:13;14.10;99.90
1351;DHT22;669;50.206;9.998;2023-08-06T03:08:41;14.00;99.90
1351;DHT22;669;50.206;9.998;2023-08-06T03:11:09;14.00;99.90
1351;DHT22;669;50.206;9.998;2023-08-06T03:13:37;14.00;99.90
1351;DHT22;669;50.206;9.998;2023-08-06T03:16:05;14.00;99.90
1351;DHT22;669;50.206;9.998;2023-08-06T03:18:33;14.00;99.90
1351;DHT22;669;50.206;9.998;2023-08-06T03:21:02;14.00;99.90
1351;DHT22;669;50.206;9.998;2023-08-06T03:23:30;14.00;99.90
1351;DHT22;669;50.206;9.998;2023-08-06T03:26:01;14.10;99.90
1351;DHT22;669;50.206;9.998;2023-08-06T03:28:29;14.10;99.90
1351;DHT22;669;50.206;9.998;2023-08-06T03:31:00;14.20;99.90
1351;DHT22;669;50.206;9.998;2023-08-06T03:33:29;14.20;99.90
1351;DHT22;669;50.206;9.998;2023-08-06T03:35:57;14.30;99.90
1351;DHT22;669;50.206;9.998;2023-08-06T03:38:27;14.30;99.90
1351;DHT22;669;50.206;9.998;2023-08-06T03:40:55;14.30;99.90
1351;DHT22;669;50.206;9.998;2023-08-06T03:43:23;14.40;99.90
1351;DHT22;669;50.206;9.998;2023-08-06T03:45:51;14.40;99.90
1351;DHT22;669;50.206;9.998;2023-08-06T03:48:19;14.30;99.90
1351;DHT22;669;50.206;9.998;2023-08-06T03:50:47;14.30;99.90
1351;DHT22;669;50.206;9.998;2023-08-06T03:53:18;14.30;99.90
1351;DHT22;669;50.206;9.998;2023-08-06T03:55:47;14.30;99.90
1351;DHT22;669;50.206;9.998;2023-08-06T03:58:15;14.30;99.90
1351;DHT22;669;50.206;9.998;2023-08-06T04:00:43;14.30;99.90
1351;DHT22;669;50.206;9.998;2023-08-06T04:03:11;14.30;99.90
1351;DHT22;669;50.206;9.998;2023-08-06T04:05:39;14.30;99.90
1351;DHT22;669;50.206;9.998;2023-08-06T04:08:07;14.40;99.90
1351;DHT22;669;50.206;9.998;2023-08-06T04:10:35;14.40;99.90
1351;DHT22;669;50.206;9.998;2023-08-06T04:13:04;14.40;99.90
1351;DHT22;669;50.206;9.998;2023-08-06T04:15:33;14.50;99.90
1351;DHT22;669;50.206;9.998;2023-08-06T04:18:01;14.50;99.90
1351;DHT22;669;50.206;9.998;2023-08-06T04:20:29;14.50;99.90
1351;DHT22;669;50.206;9.998;2023-08-06T04:22:57;14.50;99.90
1351;DHT22;669;50.206;9.998;2023-08-06T04:25:25;14.50;99.90
1351;DHT22;669;50.206;9.998;2023-08-06T04:27:53;14.50;99.90
1351;DHT22;669;50.206;9.998;2023-08-06T04:30:22;14.50;99.90
1351;DHT22;669;50.206;9.998;2023-08-06T04:32:50;14.50;99.90
1351;DHT22;669;50.206;9.998;2023-08-06T04:35:18;14.50;99.90
1351;DHT22;669;50.206;9.998;2023-08-06T04:37:46;14.50;99.90
1351;DHT22;669;50.206;9.998;2023-08-06T04:40:14;14.50;99.90
1351;DHT22;669;50.206;9.998;2023-08-06T04:42:42;14.50;99.90
1351;DHT22;669;50.206;9.998;2023-08-06T04:45:10;14.50;99.90
1351;DHT22;669;50.206;9.998;2023-08-06T04:47:39;14.60;99.90
1351;DHT22;669;50.206;9.998;2023-08-06T04:50:07;14.60;99.90
1351;DHT22;669;50.206;9.998;2023-08-06T04:52:36;14.60;99.90
1351;DHT22;669;50.206;9.998;2023-08-06T04:55:05;14.60;99.90
1351;DHT22;669;50.206;9.998;2023-08-06T04:57:33;14.60;99.90
1351;DHT22;669;50.206;9.998;2023-08-06T05:00:02;14.70;99.90
1351;DHT22;669;50.206;9.998;2023-08-06T05:02:31;14.70;99.90
1351;DHT22;669;50.206;9.998;2023-08-06T05:05:02;14.70;99.90
1351;DHT22;669;50.206;9.998;2023-08-06T05:07:30;14.70;99.90
1351;DHT22;669;50.206;9.998;2023-08-06T05:09:58;14.70;99.90
1351;DHT22;669;50.206;9.998;2023-08-06T05:12:26;14.70;99.90
1351;DHT22;669;50.206;9.998;2023-08-06T05:14:54;14.70;99.90
1351;DHT22;669;50.206;9.998;2023-08-06T05:17:22;14.70;99.90
1351;DHT22;669;50.206;9.998;2023-08-06T05:19:50;14.70;99.90
1351;DHT22;669;50.206;9.998;2023-08-06T05:22:20;14.80;99.90
1351;DHT22;669;50.206;9.998;2023-08-06T05:24:48;14.80;99.90
1351;DHT22;669;50.206;9.998;2023-08-06T05:27:16;14.90;99.90
1351;DHT22;669;50.206;9.998;2023-08-06T05:29:45;15.30;99.90
1351;DHT22;669;50.206;9.998;2023-08-06T05:32:13;15.70;99.90
1351;DHT22;669;50.206;9.998;2023-08-06T05:34:41;15.90;99.90
1351;DHT22;669;50.206;9.998;2023-08-06T05:37:09;15.90;98.70
1351;DHT22;669;50.206;9.998;2023-08-06T05:39:38;15.90;98.40
1351;DHT22;669;50.206;9.998;2023-08-06T05:42:06;15.80;98.40
1351;DHT22;669;50.206;9.998;2023-08-06T05:44:34;15.70;98.20
1351;DHT22;669;50.206;9.998;2023-08-06T05:47:02;15.60;98.60
1351;DHT22;669;50.206;9.998;2023-08-06T05:49:30;15.50;98.90
1351;DHT22;669;50.206;9.998;2023-08-06T05:51:58;15.50;99.40
1351;DHT22;669;50.206;9.998;2023-08-06T05:54:26;15.50;99.70
1351;DHT22;669;50.206;9.998;2023-08-06T05:56:56;15.50;99.70
1351;DHT22;669;50.206;9.998;2023-08-06T05:59:24;15.50;99.50
1351;DHT22;669;50.206;9.998;2023-08-06T06:01:52;15.50;98.90
1351;DHT22;669;50.206;9.998;2023-08-06T06:04:21;15.50;98.90
1351;DHT22;669;50.206;9.998;2023-08-06T06:06:49;15.50;98.90
1351;DHT22;669;50.206;9.998;2023-08-06T06:09:17;15.60;98.70
1351;DHT22;669;50.206;9.998;2023-08-06T06:11:45;15.60;98.60
1351;DHT22;669;50.206;9.998;2023-08-06T06:14:15;15.50;98.10
1351;DHT22;669;50.206;9.998;2023-08-06T06:16:43;15.50;97.70
1351;DHT22;669;50.206;9.998;2023-08-06T06:19:12;15.50;98.10
1351;DHT22;669;50.206;9.998;2023-08-06T06:21:40;15.50;98.60
1351;DHT22;669;50.206;9.998;2023-08-06T06:24:08;15.50;98.80
1351;DHT22;669;50.206;9.998;2023-08-06T06:26:35;15.50;99.00
1351;DHT22;669;50.206;9.998;2023-08-06T06:29:04;15.50;98.50
1351;DHT22;669;50.206;9.998;2023-08-06T06:31:35;15.50;98.50
1351;DHT22;669;50.206;9.998;2023-08-06T06:34:03;15.60;97.70
1351;DHT22;669;50.206;9.998;2023-08-06T06:36:31;15.60;98.20
1351;DHT22;669;50.206;9.998;2023-08-06T06:38:59;15.90;98.20
1351;DHT22;669;50.206;9.998;2023-08-06T06:41:27;15.90;97.70
1351;DHT22;669;50.206;9.998;2023-08-06T06:43:58;16.00;97.60
1351;DHT22;669;50.206;9.998;2023-08-06T06:46:26;16.00;97.10
1351;DHT22;669;50.206;9.998;2023-08-06T06:48:55;16.10;97.00
1351;DHT22;669;50.206;9.998;2023-08-06T06:51:23;16.10;96.80
1351;DHT22;669;50.206;9.998;2023-08-06T06:53:51;16.10;96.00
1351;DHT22;669;50.206;9.998;2023-08-06T06:56:19;16.20;96.00
1351;DHT22;669;50.206;9.998;2023-08-06T06:58:47;16.60;97.10
1351;DHT22;669;50.206;9.998;2023-08-06T07:01:15;16.90;94.50
1351;DHT22;669;50.206;9.998;2023-08-06T07:03:43;17.00;92.70
1351;DHT22;669;50.206;9.998;2023-08-06T07:06:12;16.90;93.30
1351;DHT22;669;50.206;9.998;2023-08-06T07:08:42;16.80;91.60
1351;DHT22;669;50.206;9.998;2023-08-06T07:11:10;16.60;92.10
1351;DHT22;669;50.206;9.998;2023-08-06T07:13:38;16.50;92.70
1351;DHT22;669;50.206;9.998;2023-08-06T07:16:06;16.30;94.20
1351;DHT22;669;50.206;9.998;2023-08-06T07:18:37;16.30;92.90
1351;DHT22;669;50.206;9.998;2023-08-06T07:21:05;16.20;93.10
1351;DHT22;669;50.206;9.998;2023-08-06T07:23:34;16.10;94.50
1351;DHT22;669;50.206;9.998;2023-08-06T07:26:02;16.10;94.60
1351;DHT22;669;50.206;9.998;2023-08-06T07:28:30;16.00;95.20
1351;DHT22;669;50.206;9.998;2023-08-06T07:30:58;16.00;95.30
1351;DHT22;669;50.206;9.998;2023-08-06T07:33:26;16.00;95.00
1351;DHT22;669;50.206;9.998;2023-08-06T07:35:54;16.00;93.80
1351;DHT22;669;50.206;9.998;2023-08-06T07:38:22;16.00;96.20
1351;DHT22;669;50.206;9.998;2023-08-06T07:40:51;16.10;96.90
1351;DHT22;669;50.206;9.998;2023-08-06T07:43:19;16.20;97.20
1351;DHT22;669;50.206;9.998;2023-08-06T07:45:47;16.30;97.20
1351;DHT22;669;50.206;9.998;2023-08-06T07:48:15;16.40;96.70
1351;DHT22;669;50.206;9.998;2023-08-06T07:50:43;16.50;96.60
1351;DHT22;669;50.206;9.998;2023-08-06T07:53:16;16.50;94.50
1351;DHT22;669;50.206;9.998;2023-08-06T07:55:50;16.60;92.90
1351;DHT22;669;50.206;9.998;2023-08-06T07:58:19;16.70;93.80
1351;DHT22;669;50.206;9.998;2023-08-06T08:00:47;16.70;94.20
1351;DHT22;669;50.206;9.998;2023-08-06T08:03:15;16.60;94.20
1351;DHT22;669;50.206;9.998;2023-08-06T08:05:44;16.50;92.90
1351;DHT22;669;50.206;9.998;2023-08-06T08:08:12;16.30;93.40
1351;DHT22;669;50.206;9.998;2023-08-06T08:10:41;16.20;94.30
1351;DHT22;669;50.206;9.998;2023-08-06T08:13:11;16.00;94.00
1351;DHT22;669;50.206;9.998;2023-08-06T08:15:39;15.90;94.70
1351;DHT22;669;50.206;9.998;2023-08-06T08:18:07;15.60;96.20
1351;DHT22;669;50.206;9.998;2023-08-06T08:20:34;15.40;97.20
1351;DHT22;669;50.206;9.998;2023-08-06T08:23:02;15.20;97.60
1351;DHT22;669;50.206;9.998;2023-08-06T08:25:30;15.00;98.00
1351;DHT22;669;50.206;9.998;2023-08-06T08:28:01;14.90;98.90
1351;DHT22;669;50.206;9.998;2023-08-06T08:30:30;14.80;99.90
1351;DHT22;669;50.206;9.998;2023-08-06T08:32:58;14.80;99.90
1351;DHT22;669;50.206;9.998;2023-08-06T08:35:26;14.80;99.90
1351;DHT22;669;50.206;9.998;2023-08-06T08:37:54;15.00;99.90
1351;DHT22;669;50.206;9.998;2023-08-06T08:40:23;15.30;99.90
1351;DHT22;669;50.206;9.998;2023-08-06T08:42:52;15.80;99.90
1351;DHT22;669;50.206;9.998;2023-08-06T08:45:22;16.30;99.90
1351;DHT22;669;50.206;9.998;2023-08-06T08:47:52;16.60;99.70
1351;DHT22;669;50.206;9.998;2023-08-06T08:50:21;16.50;96.20
1351;DHT22;669;50.206;9.998;2023-08-06T08:52:50;16.40;95.10
1351;DHT22;669;50.206;9.998;2023-08-06T08:55:18;16.20;97.40
1351;DHT22;669;50.206;9.998;2023-08-06T08:57:48;16.10;97.10
1351;DHT22;669;50.206;9.998;2023-08-06T09:00:16;16.00;97.90
1351;DHT22;669;50.206;9.998;2023-08-06T09:02:44;15.90;98.30
1351;DHT22;669;50.206;9.998;2023-08-06T09:05:16;15.80;98.90
1351;DHT22;669;50.206;9.998;2023-08-06T09:07:48;15.60;99.00
1351;DHT22;669;50.206;9.998;2023-08-06T09:10:17;15.50;98.90
1351;DHT22;669;50.206;9.998;2023-08-06T09:12:48;15.40;99.30
1351;DHT22;669;50.206;9.998;2023-08-06T09:15:16;15.40;99.90
1351;DHT22;669;50.206;9.998;2023-08-06T09:17:44;15.40;99.90
1351;DHT22;669;50.206;9.998;2023-08-06T09:20:13;15.40;99.90
1351;DHT22;669;50.206;9.998;2023-08-06T09:22:42;15.30;99.90
1351;DHT22;669;50.206;9.998;2023-08-06T09:25:11;15.40;99.90
1351;DHT22;669;50.206;9.998;2023-08-06T09:27:40;15.40;99.60
1351;DHT22;669;50.206;9.998;2023-08-06T09:30:08;15.50;99.20
1351;DHT22;669;50.206;9.998;2023-08-06T09:32:45;15.80;99.90
1351;DHT22;669;50.206;9.998;2023-08-06T09:35:15;16.30;99.90
1351;DHT22;669;50.206;9.998;2023-08-06T09:37:45;16.70;95.90
1351;DHT22;669;50.206;9.998;2023-08-06T09:40:25;17.00;94.30
1351;DHT22;669;50.206;9.998;2023-08-06T09:42:53;17.20;95.20
1351;DHT22;669;50.206;9.998;2023-08-06T09:45:21;17.40;95.60
1351;DHT22;669;50.206;9.998;2023-08-06T09:47:50;17.40;88.40
1351;DHT22;669;50.206;9.998;2023-08-06T09:50:18;17.30;90.90
1351;DHT22;669;50.206;9.998;2023-08-06T09:52:48;17.40;92.40
1351;DHT22;669;50.206;9.998;2023-08-06T09:55:16;17.60;93.40
1351;DHT22;669;50.206;9.998;2023-08-06T09:57:44;17.90;91.00
1351;DHT22;669;50.206;9.998;2023-08-06T10:00:12;18.00;87.90
1351;DHT22;669;50.206;9.998;2023-08-06T10:02:41;18.10;86.30
1351;DHT22;669;50.206;9.998;2023-08-06T10:05:09;17.90;86.50
1351;DHT22;669;50.206;9.998;2023-08-06T10:07:38;17.70;90.40
1351;DHT22;669;50.206;9.998;2023-08-06T10:10:08;17.60;86.20
1351;DHT22;669;50.206;9.998;2023-08-06T10:12:40;17.50;86.30
1351;DHT22;669;50.206;9.998;2023-08-06T10:15:12;17.60;90.10
1351;DHT22;669;50.206;9.998;2023-08-06T10:17:42;17.70;89.80
1351;DHT22;669;50.206;9.998;2023-08-06T10:20:17;17.90;89.30
1351;DHT22;669;50.206;9.998;2023-08-06T10:22:59;18.00;83.60
1351;DHT22;669;50.206;9.998;2023-08-06T10:25:32;18.10;79.90
1351;DHT22;669;50.206;9.998;2023-08-06T10:28:07;18.00;84.80
1351;DHT22;669;50.206;9.998;2023-08-06T10:30:41;17.80;83.30
1351;DHT22;669;50.206;9.998;2023-08-06T10:33:10;17.80;89.30
1351;DHT22;669;50.206;9.998;2023-08-06T10:35:40;18.10;84.40
1351;DHT22;669;50.206;9.998;2023-08-06T10:38:12;18.10;82.80
1351;DHT22;669;50.206;9.998;2023-08-06T10:40:48;18.00;77.60
1351;DHT22;669;50.206;9.998;2023-08-06T10:43:25;17.90;81.60
1351;DHT22;669;50.206;9.998;2023-08-06T10:45:54;17.70;83.00
1351;DHT22;669;50.206;9.998;2023-08-06T10:48:40;17.80;84.90
1351;DHT22;669;50.206;9.998;2023-08-06T10:51:09;18.00;86.60
1351;DHT22;669;50.206;9.998;2023-08-06T10:53:38;18.20;80.50
1351;DHT22;669;50.206;9.998;2023-08-06T10:56:13;18.20;75.20
1351;DHT22;669;50.206;9.998;2023-08-06T10:58:42;17.90;78.90
1351;DHT22;669;50.206;9.998;2023-08-06T11:01:10;17.70;80.40
1351;DHT22;669;50.206;9.998;2023-08-06T11:03:39;17.50;81.70
1351;DHT22;669;50.206;9.998;2023-08-06T11:06:07;17.40;85.00
1351;DHT22;669;50.206;9.998;2023-08-06T11:08:37;17.40;84.70
1351;DHT22;669;50.206;9.998;2023-08-06T11:11:09;17.40;85.30
1351;DHT22;669;50.206;9.998;2023-08-06T11:13:42;17.40;85.50
1351;DHT22;669;50.206;9.998;2023-08-06T11:16:11;17.20;87.20
1351;DHT22;669;50.206;9.998;2023-08-06T11:18:40;17.20;85.80
1351;DHT22;669;50.206;9.998;2023-08-06T11:21:08;17.00;85.70
1351;DHT22;669;50.206;9.998;2023-08-06T11:23:36;17.00;90.10
1351;DHT22;669;50.206;9.998;2023-08-06T11:26:04;17.30;91.20
1351;DHT22;669;50.206;9.998;2023-08-06T11:28:32;18.00;90.00
1351;DHT22;669;50.206;9.998;2023-08-06T11:31:01;18.50;81.10
1351;DHT22;669;50.206;9.998;2023-08-06T11:33:30;18.70;75.60
1351;DHT22;669;50.206;9.998;2023-08-06T11:35:59;18.90;77.10
1351;DHT22;669;50.206;9.998;2023-08-06T11:38:29;19.20;70.40
1351;DHT22;669;50.206;9.998;2023-08-06T11:40:57;19.40;72.60
1351;DHT22;669;50.206;9.998;2023-08-06T11:43:25;19.30;67.20
1351;DHT22;669;50.206;9.998;2023-08-06T11:45:55;18.90;72.00
1351;DHT22;669;50.206;9.998;2023-08-06T11:48:25;18.50;75.90
1351;DHT22;669;50.206;9.998;2023-08-06T11:50:54;18.00;80.80
1351;DHT22;669;50.206;9.998;2023-08-06T11:53:27;17.80;82.30
1351;DHT22;669;50.206;9.998;2023-08-06T11:55:55;17.60;84.90
1351;DHT22;669;50.206;9.998;2023-08-06T11:58:23;17.50;82.50
1351;DHT22;669;50.206;9.998;2023-08-06T12:00:52;17.40;78.50
1351;DHT22;669;50.206;9.998;2023-08-06T12:03:20;17.50;81.40
1351;DHT22;669;50.206;9.998;2023-08-06T12:05:55;17.60;84.90
1351;DHT22;669;50.206;9.998;2023-08-06T12:08:26;17.80;79.60
1351;DHT22;669;50.206;9.998;2023-08-06T12:10:54;18.10;82.00
1351;DHT22;669;50.206;9.998;2023-08-06T12:13:22;18.80;71.20
1351;DHT22;669;50.206;9.998;2023-08-06T12:15:50;19.10;68.20
1351;DHT22;669;50.206;9.998;2023-08-06T12:18:20;19.20;62.40
1351;DHT22;669;50.206;9.998;2023-08-06T12:20:49;19.50;67.60
1351;DHT22;669;50.206;9.998;2023-08-06T12:23:18;20.20;61.40
1351;DHT22;669;50.206;9.998;2023-08-06T12:25:46;20.40;60.70
1351;DHT22;669;50.206;9.998;2023-08-06T12:28:14;20.50;52.50
1351;DHT22;669;50.206;9.998;2023-08-06T12:30:42;20.10;56.70
1351;DHT22;669;50.206;9.998;2023-08-06T12:33:11;19.60;58.80
1351;DHT22;669;50.206;9.998;2023-08-06T12:35:39;18.90;70.30
1351;DHT22;669;50.206;9.998;2023-08-06T12:38:07;18.10;80.00
1351;DHT22;669;50.206;9.998;2023-08-06T12:40:37;17.30;87.60
1351;DHT22;669;50.206;9.998;2023-08-06T12:43:09;16.60;91.10
1351;DHT22;669;50.206;9.998;2023-08-06T12:45:37;16.20;93.90
1351;DHT22;669;50.206;9.998;2023-08-06T12:48:05;16.00;95.50
1351;DHT22;669;50.206;9.998;2023-08-06T12:50:33;15.80;96.10
1351;DHT22;669;50.206;9.998;2023-08-06T12:53:01;15.70;97.20
1351;DHT22;669;50.206;9.998;2023-08-06T12:55:30;15.80;97.80
1351;DHT22;669;50.206;9.998;2023-08-06T12:58:00;15.90;99.00
1351;DHT22;669;50.206;9.998;2023-08-06T13:00:28;16.10;98.00
1351;DHT22;669;50.206;9.998;2023-08-06T13:02:57;16.10;97.60
1351;DHT22;669;50.206;9.998;2023-08-06T13:05:25;16.10;97.70
1351;DHT22;669;50.206;9.998;2023-08-06T13:07:53;16.10;97.80
1351;DHT22;669;50.206;9.998;2023-08-06T13:10:21;16.00;98.00
1351;DHT22;669;50.206;9.998;2023-08-06T13:12:51;16.10;99.10
1351;DHT22;669;50.206;9.998;2023-08-06T13:15:21;16.10;98.40
1351;DHT22;669;50.206;9.998;2023-08-06T13:17:48;16.30;99.10
1351;DHT22;669;50.206;9.998;2023-08-06T13:20:17;16.60;99.90
1351;DHT22;669;50.206;9.998;2023-08-06T13:22:46;16.80;99.90
1351;DHT22;669;50.206;9.998;2023-08-06T13:25:17;17.20;99.20
1351;DHT22;669;50.206;9.998;2023-08-06T13:27:46;17.70;99.00
1351;DHT22;669;50.206;9.998;2023-08-06T13:30:14;18.10;96.60
1351;DHT22;669;50.206;9.998;2023-08-06T13:32:44;18.50;91.30
1351;DHT22;669;50.206;9.998;2023-08-06T13:35:12;18.50;88.20
1351;DHT22;669;50.206;9.998;2023-08-06T13:37:40;18.20;91.50
1351;DHT22;669;50.206;9.998;2023-08-06T13:40:08;18.00;91.40
1351;DHT22;669;50.206;9.998;2023-08-06T13:42:36;17.80;91.20
1351;DHT22;669;50.206;9.998;2023-08-06T13:45:05;17.80;93.00
1351;DHT22;669;50.206;9.998;2023-08-06T13:47:33;17.70;90.40
1351;DHT22;669;50.206;9.998;2023-08-06T13:50:04;17.60;90.10
1351;DHT22;669;50.206;9.998;2023-08-06T13:52:32;17.40;90.90
1351;DHT22;669;50.206;9.998;2023-08-06T13:55:02;17.20;92.30
1351;DHT22;669;50.206;9.998;2023-08-06T13:57:30;17.00;94.00
1351;DHT22;669;50.206;9.998;2023-08-06T13:59:58;16.70;92.50
1351;DHT22;669;50.206;9.998;2023-08-06T14:02:26;16.30;93.30
1351;DHT22;669;50.206;9.998;2023-08-06T14:04:55;16.00;94.30
1351;DHT22;669;50.206;9.998;2023-08-06T14:07:25;15.80;95.20
1351;DHT22;669;50.206;9.998;2023-08-06T14:09:53;15.60;96.30
1351;DHT22;669;50.206;9.998;2023-08-06T14:12:21;15.50;97.10
1351;DHT22;669;50.206;9.998;2023-08-06T14:14:49;15.40;97.70
1351;DHT22;669;50.206;9.998;2023-08-06T14:17:17;15.40;96.40
1351;DHT22;669;50.206;9.998;2023-08-06T14:19:44;15.40;97.10
1351;DHT22;669;50.206;9.998;2023-08-06T14:22:12;15.30;98.40
1351;DHT22;669;50.206;9.998;2023-08-06T14:24:42;15.30;98.90
1351;DHT22;669;50.206;9.998;2023-08-06T14:27:10;15.40;99.60
1351;DHT22;669;50.206;9.998;2023-08-06T14:29:38;15.50;98.90
1351;DHT22;669;50.206;9.998;2023-08-06T14:32:06;15.50;97.10
1351;DHT22;669;50.206;9.998;2023-08-06T14:34:34;15.60;97.00
1351;DHT22;669;50.206;9.998;2023-08-06T14:37:03;15.50;96.10
1351;DHT22;669;50.206;9.998;2023-08-06T14:39:31;15.50;95.00
1351;DHT22;669;50.206;9.998;2023-08-06T14:42:00;15.30;96.40
1351;DHT22;669;50.206;9.998;2023-08-06T14:44:29;15.20;96.50
1351;DHT22;669;50.206;9.998;2023-08-06T14:46:56;15.00;97.30
1351;DHT22;669;50.206;9.998;2023-08-06T14:49:25;14.90;98.00
1351;DHT22;669;50.206;9.998;2023-08-06T14:51:53;14.80;97.40
1351;DHT22;669;50.206;9.998;2023-08-06T14:54:21;14.70;97.70
1351;DHT22;669;50.206;9.998;2023-08-06T14:56:50;14.50;97.80
1351;DHT22;669;50.206;9.998;2023-08-06T14:59:19;14.40;98.30
1351;DHT22;669;50.206;9.998;2023-08-06T15:01:48;14.40;99.10
1351;DHT22;669;50.206;9.998;2023-08-06T15:04:20;14.30;98.80
1351;DHT22;669;50.206;9.998;2023-08-06T15:06:50;14.30;98.20
1351;DHT22;669;50.206;9.998;2023-08-06T15:09:18;14.20;98.00
1351;DHT22;669;50.206;9.998;2023-08-06T15:11:48;14.20;97.70
1351;DHT22;669;50.206;9.998;2023-08-06T15:14:16;14.10;98.40
1351;DHT22;669;50.206;9.998;2023-08-06T15:16:47;14.10;98.50
1351;DHT22;669;50.206;9.998;2023-08-06T15:19:15;14.10;97.90
1351;DHT22;669;50.206;9.998;2023-08-06T15:21:43;14.10;98.30
1351;DHT22;669;50.206;9.998;2023-08-06T15:24:11;14.10;98.90
1351;DHT22;669;50.206;9.998;2023-08-06T15:26:39;14.20;99.10
1351;DHT22;669;50.206;9.998;2023-08-06T15:29:07;14.20;98.30
1351;DHT22;669;50.206;9.998;2023-08-06T15:31:37;14.20;98.70
1351;DHT22;669;50.206;9.998;2023-08-06T15:34:07;14.20;99.10
1351;DHT22;669;50.206;9.998;2023-08-06T15:36:35;14.30;97.80
1351;DHT22;669;50.206;9.998;2023-08-06T15:39:03;14.20;99.10
1351;DHT22;669;50.206;9.998;2023-08-06T15:41:31;14.10;98.60
1351;DHT22;669;50.206;9.998;2023-08-06T15:43:59;14.10;99.70
1351;DHT22;669;50.206;9.998;2023-08-06T15:46:27;14.00;99.80
1351;DHT22;669;50.206;9.998;2023-08-06T15:48:55;14.00;99.10
1351;DHT22;669;50.206;9.998;2023-08-06T15:51:24;14.00;99.70
1351;DHT22;669;50.206;9.998;2023-08-06T15:53:52;13.90;99.90
1351;DHT22;669;50.206;9.998;2023-08-06T15:56:20;13.90;99.90
1351;DHT22;669;50.206;9.998;2023-08-06T15:58:48;13.90;99.90
1351;DHT22;669;50.206;9.998;2023-08-06T16:01:16;13.80;99.90
1351;DHT22;669;50.206;9.998;2023-08-06T16:03:44;13.80;99.90
1351;DHT22;669;50.206;9.998;2023-08-06T16:06:12;13.80;99.90
1351;DHT22;669;50.206;9.998;2023-08-06T16:08:41;13.80;99.90
1351;DHT22;669;50.206;9.998;2023-08-06T16:11:09;13.70;99.90
1351;DHT22;669;50.206;9.998;2023-08-06T16:13:37;13.70;99.90
1351;DHT22;669;50.206;9.998;2023-08-06T16:16:05;13.70;99.90
1351;DHT22;669;50.206;9.998;2023-08-06T16:18:33;13.70;99.90
1351;DHT22;669;50.206;9.998;2023-08-06T16:21:01;13.70;99.80
1351;DHT22;669;50.206;9.998;2023-08-06T16:23:29;13.70;99.90
1351;DHT22;669;50.206;9.998;2023-08-06T16:25:58;13.70;99.90
1351;DHT22;669;50.206;9.998;2023-08-06T16:28:27;13.70;99.90